LPPD/PDL METAR and TAF weather

Enter ICAO airport designator
Station Type Date Time Source
LPPD METAR 2020/09/26 11:30 UTC NOAA

LPPD 261130Z 11013KT 070V140 9999 FEW018 22/17 Q1029


Station Type Date Time Source
LPPD Decoded METAR 2020/09/26 11:30 UTC NOAA

Ponta Delgada / Nordela Acores , Portugal (LPPD) 37-44N 025-42W 72M
Sep 26, 2020 - 07:30 AM EDT / 2020.09.26 1130 UTC
Wind: from the ESE (110 degrees) at 15 MPH (13 KT) (direction variable):0
Visibility: greater than 7 mile(s):0
Sky conditions: mostly clear
Temperature: 71 F (22 C)
Dew Point: 62 F (17 C)
Relative Humidity: 73%
Pressure (altimeter): 30.39 in. Hg (1029 hPa)
ob: LPPD 261130Z 11013KT 070V140 9999 FEW018 22/17 Q1029
cycle: 11

Station Type Date Time Source
LPPD TAF 2020/09/26 12:18 UTC NOAA

TAF LPPD 261100Z 2612/2712 12013KT 9999 FEW020 BKN035
BECMG 2618/2620 SCT012 BKN024 PROB40
TEMPO 2620/2624 5000 -RADZ BR SCT006 BKN010
BECMG 2700/2703 15008KT
TEMPO 2700/2712 5000 SHRA BKN008 FEW018CB PROB30
TEMPO 2700/2712 VRB15G25KT 3000 +TSRA SCT016CB

Example: see airport list